Airport View

Enter AWOS ICAO identifier for current METAR.

ex. KFNL

KGGE 251650Z AUTO 15003KT 10SM BKN024 BKN029 BKN055 25/19 A2998 RMK AO2

25 Oct 2020 16:51

Frequency: 118.275

Phone: 843-527-3851

Other Area AWOS: KMYR - KHYW - KLRO - KCKI

TAF AMD KMYR 251539Z 2516/2612 00000KT P6SM FEW010 OVC040 FM251800 VRB03KT 6SM SHRA BR BKN045 FM252000 07005KT P6SM BKN030 FM260000 03005KT P6SM BKN020